Barboursville, VA (22923)

9:29 PM EDT on August 29, 2016 (GMT -0400)
The Vineyards | | Change Station

Elev 561 ft 38.19 °N, 78.29 °W | Updated 1 second ago

Clear
Clear
72.8 °F
Feels Like 71 °F
N
0.0
Wind Variable Wind from East
Gusts 0.0 mph

Today
High -- | Low -- °F
--% Chance of Precip.
Yesterday
High -- | Low -- °F
Precip. -- in
Pressure 30.11 in
Visibility 10.0 miles
Clouds Clear
Heat Index 71 °F
Dew Point 69 °F
Humidity 89%
Rainfall 0.00 in
Snow Depth Not available.
6:40 AM 7:46 PM
Waning Crescent, 6% visible
METAR KCHO 300053Z 00000KT 10SM CLR 27/20 A3013 RMK AO2 SLP194 T02720200
Pressure 30.11 in
Visibility 10.0 miles
Clouds Clear
Heat Index 71 °F
Dew Point 69 °F
Humidity 89%
Rainfall 0.00 in
Snow Depth Not available.
6:40 AM 7:46 PM
Waning Crescent, 6% visible
METAR KCHO 300053Z 00000KT 10SM CLR 27/20 A3013 RMK AO2 SLP194 T02720200

10-Day Weather Forecast

Almanac

Astronomy

Aug. 29, 2016 Rise Set
Actual Time
Civil Twilight
Nautical Twilight
Astronomical Twilight
Moon
Length of Visible Light
Length of Day
Tomorrow will be .
, % of the Moon is Illuminated

Today's Extremes

State Highs State Lows

Community

WunderPhotos

Upload Photos

1,935,709 photos uploaded!

WunderBlog® & News

Nearby

Air Quality

  Air Quality AQ Index Pollutant
Not available.

Snow Depth

Station Depth Elevation

Earthquake Activity

City Distance Mag. Time & Date
Minimum magnitude displayed is 2.5.

Coastal Water Temperatures

Place Temperature

Stations

Nearby Weather Stations

Station Location Temp. Windchill Dew Point Humidity Wind Precip. Elev Updated Type
                   

Watches & Warnings

There are currently no watches in effect.